sensor_id;sensor_type;location;lat;lon;timestamp;P1;durP1;ratioP1;P2;durP2;ratioP2
63032;SDS011;49121;38.932;-9.018;2022-12-18T00:00:45;17.85;;;9.65;;
63032;SDS011;49121;38.932;-9.018;2022-12-18T00:02:50;21.42;;;9.60;;
63032;SDS011;49121;38.932;-9.018;2022-12-18T00:04:50;20.75;;;9.35;;
63032;SDS011;49121;38.932;-9.018;2022-12-18T00:06:51;19.27;;;8.82;;
63032;SDS011;49121;38.932;-9.018;2022-12-18T00:08:51;14.93;;;8.05;;
63032;SDS011;49121;38.932;-9.018;2022-12-18T00:10:53;15.88;;;8.30;;
63032;SDS011;49121;38.932;-9.018;2022-12-18T00:12:54;15.90;;;8.35;;
63032;SDS011;49121;38.932;-9.018;2022-12-18T00:14:54;15.55;;;7.72;;
63032;SDS011;49121;38.932;-9.018;2022-12-18T00:17:32;18.65;;;8.85;;
63032;SDS011;49121;38.932;-9.018;2022-12-18T00:19:32;14.35;;;8.57;;
63032;SDS011;49121;38.932;-9.018;2022-12-18T00:21:52;16.02;;;9.05;;
63032;SDS011;49121;38.932;-9.018;2022-12-18T00:26:33;17.17;;;8.05;;
63032;SDS011;49121;38.932;-9.018;2022-12-18T00:28:35;17.75;;;8.40;;
63032;SDS011;49121;38.932;-9.018;2022-12-18T00:33:17;20.98;;;8.95;;
63032;SDS011;49121;38.932;-9.018;2022-12-18T00:35:18;14.75;;;8.38;;
63032;SDS011;49121;38.932;-9.018;2022-12-18T00:42:36;15.77;;;8.02;;
63032;SDS011;49121;38.932;-9.018;2022-12-18T00:44:55;19.63;;;8.48;;
63032;SDS011;49121;38.932;-9.018;2022-12-18T00:46:55;13.32;;;7.57;;
63032;SDS011;49121;38.932;-9.018;2022-12-18T00:48:56;14.80;;;7.70;;
63032;SDS011;49121;38.932;-9.018;2022-12-18T00:51:16;16.63;;;8.50;;
63032;SDS011;49121;38.932;-9.018;2022-12-18T00:53:54;17.33;;;7.97;;
63032;SDS011;49121;38.932;-9.018;2022-12-18T00:59:14;14.63;;;8.18;;
63032;SDS011;49121;38.932;-9.018;2022-12-18T01:01:33;21.88;;;8.20;;
63032;SDS011;49121;38.932;-9.018;2022-12-18T01:03:34;23.80;;;9.02;;
63032;SDS011;49121;38.932;-9.018;2022-12-18T01:07:38;14.93;;;8.65;;
63032;SDS011;49121;38.932;-9.018;2022-12-18T01:09:39;20.42;;;7.97;;
63032;SDS011;49121;38.932;-9.018;2022-12-18T01:14:17;20.33;;;6.57;;
63032;SDS011;49121;38.932;-9.018;2022-12-18T01:16:18;15.35;;;6.72;;
63032;SDS011;49121;38.932;-9.018;2022-12-18T01:18:18;15.82;;;6.72;;
63032;SDS011;49121;38.932;-9.018;2022-12-18T01:20:19;18.40;;;8.15;;
63032;SDS011;49121;38.932;-9.018;2022-12-18T01:22:20;13.55;;;6.18;;
63032;SDS011;49121;38.932;-9.018;2022-12-18T01:31:19;19.17;;;6.95;;
63032;SDS011;49121;38.932;-9.018;2022-12-18T01:33:24;13.25;;;6.10;;
63032;SDS011;49121;38.932;-9.018;2022-12-18T01:35:25;15.02;;;6.32;;
63032;SDS011;49121;38.932;-9.018;2022-12-18T01:40:05;15.02;;;5.10;;
63032;SDS011;49121;38.932;-9.018;2022-12-18T01:42:13;12.27;;;5.10;;
63032;SDS011;49121;38.932;-9.018;2022-12-18T01:46:52;10.63;;;4.97;;
63032;SDS011;49121;38.932;-9.018;2022-12-18T01:48:54;16.27;;;5.65;;
63032;SDS011;49121;38.932;-9.018;2022-12-18T01:53:44;6.55;;;3.28;;
63032;SDS011;49121;38.932;-9.018;2022-12-18T01:55:51;11.07;;;4.03;;
63032;SDS011;49121;38.932;-9.018;2022-12-18T01:57:58;16.13;;;4.72;;
63032;SDS011;49121;38.932;-9.018;2022-12-18T02:00:03;22.55;;;5.38;;
63032;SDS011;49121;38.932;-9.018;2022-12-18T02:02:13;18.15;;;4.78;;
63032;SDS011;49121;38.932;-9.018;2022-12-18T02:04:20;18.98;;;3.83;;
63032;SDS011;49121;38.932;-9.018;2022-12-18T02:09:02;10.70;;;3.78;;
63032;SDS011;49121;38.932;-9.018;2022-12-18T02:21:11;15.07;;;4.43;;
63032;SDS011;49121;38.932;-9.018;2022-12-18T02:23:44;12.77;;;4.07;;
63032;SDS011;49121;38.932;-9.018;2022-12-18T02:33:27;8.25;;;4.05;;
63032;SDS011;49121;38.932;-9.018;2022-12-18T02:35:47;13.90;;;3.40;;
63032;SDS011;49121;38.932;-9.018;2022-12-18T02:40:51;14.40;;;3.28;;
63032;SDS011;49121;38.932;-9.018;2022-12-18T02:42:54;10.88;;;3.10;;
63032;SDS011;49121;38.932;-9.018;2022-12-18T02:46:58;22.63;;;3.03;;
63032;SDS011;49121;38.932;-9.018;2022-12-18T02:49:02;5.95;;;3.28;;
63032;SDS011;49121;38.932;-9.018;2022-12-18T02:51:24;4.93;;;2.05;;
63032;SDS011;49121;38.932;-9.018;2022-12-18T02:53:36;10.95;;;2.75;;
63032;SDS011;49121;38.932;-9.018;2022-12-18T02:55:48;5.65;;;1.92;;
63032;SDS011;49121;38.932;-9.018;2022-12-18T02:58:09;6.63;;;2.63;;
63032;SDS011;49121;38.932;-9.018;2022-12-18T03:00:20;5.70;;;2.50;;
63032;SDS011;49121;38.932;-9.018;2022-12-18T03:02:35;14.88;;;3.20;;
63032;SDS011;49121;38.932;-9.018;2022-12-18T03:05:01;11.90;;;2.95;;
63032;SDS011;49121;38.932;-9.018;2022-12-18T03:07:15;7.38;;;2.88;;
63032;SDS011;49121;38.932;-9.018;2022-12-18T03:09:27;6.93;;;2.25;;
63032;SDS011;49121;38.932;-9.018;2022-12-18T03:11:55;7.85;;;2.50;;
63032;SDS011;49121;38.932;-9.018;2022-12-18T03:14:18;9.27;;;2.22;;
63032;SDS011;49121;38.932;-9.018;2022-12-18T03:16:25;10.82;;;2.50;;
63032;SDS011;49121;38.932;-9.018;2022-12-18T03:23:12;5.38;;;2.20;;
63032;SDS011;49121;38.932;-9.018;2022-12-18T03:25:21;10.10;;;2.50;;
63032;SDS011;49121;38.932;-9.018;2022-12-18T03:27:27;7.32;;;2.03;;
63032;SDS011;49121;38.932;-9.018;2022-12-18T03:29:40;12.35;;;2.65;;
63032;SDS011;49121;38.932;-9.018;2022-12-18T03:31:49;5.90;;;1.98;;
63032;SDS011;49121;38.932;-9.018;2022-12-18T03:36:10;4.60;;;2.00;;
63032;SDS011;49121;38.932;-9.018;2022-12-18T03:45:42;10.25;;;2.53;;
63032;SDS011;49121;38.932;-9.018;2022-12-18T03:52:26;10.38;;;2.15;;
63032;SDS011;49121;38.932;-9.018;2022-12-18T03:54:33;15.20;;;2.83;;
63032;SDS011;49121;38.932;-9.018;2022-12-18T03:56:48;8.48;;;2.85;;
63032;SDS011;49121;38.932;-9.018;2022-12-18T03:58:57;5.43;;;2.47;;
63032;SDS011;49121;38.932;-9.018;2022-12-18T04:01:03;7.75;;;2.40;;
63032;SDS011;49121;38.932;-9.018;2022-12-18T04:05:36;6.72;;;2.50;;
63032;SDS011;49121;38.932;-9.018;2022-12-18T04:07:37;8.68;;;2.50;;
63032;SDS011;49121;38.932;-9.018;2022-12-18T04:14:45;20.30;;;3.38;;
63032;SDS011;49121;38.932;-9.018;2022-12-18T04:16:47;7.40;;;2.25;;
63032;SDS011;49121;38.932;-9.018;2022-12-18T04:18:50;5.10;;;2.15;;
63032;SDS011;49121;38.932;-9.018;2022-12-18T04:20:52;4.63;;;2.22;;
63032;SDS011;49121;38.932;-9.018;2022-12-18T04:22:53;10.18;;;3.05;;
63032;SDS011;49121;38.932;-9.018;2022-12-18T04:24:54;10.90;;;2.65;;
63032;SDS011;49121;38.932;-9.018;2022-12-18T04:27:03;7.78;;;2.40;;
63032;SDS011;49121;38.932;-9.018;2022-12-18T04:29:16;5.40;;;2.17;;
63032;SDS011;49121;38.932;-9.018;2022-12-18T04:31:17;11.77;;;2.28;;
63032;SDS011;49121;38.932;-9.018;2022-12-18T04:33:18;5.20;;;2.30;;
63032;SDS011;49121;38.932;-9.018;2022-12-18T04:37:19;9.82;;;2.53;;
63032;SDS011;49121;38.932;-9.018;2022-12-18T04:39:23;3.78;;;1.88;;
63032;SDS011;49121;38.932;-9.018;2022-12-18T04:44:23;8.98;;;2.40;;
63032;SDS011;49121;38.932;-9.018;2022-12-18T04:46:42;13.05;;;3.47;;
63032;SDS011;49121;38.932;-9.018;2022-12-18T04:48:46;7.63;;;1.80;;
63032;SDS011;49121;38.932;-9.018;2022-12-18T04:50:47;5.40;;;1.95;;
63032;SDS011;49121;38.932;-9.018;2022-12-18T04:52:48;6.15;;;2.58;;
63032;SDS011;49121;38.932;-9.018;2022-12-18T04:57:08;3.80;;;1.77;;
63032;SDS011;49121;38.932;-9.018;2022-12-18T04:59:27;8.18;;;2.22;;
63032;SDS011;49121;38.932;-9.018;2022-12-18T05:01:46;6.18;;;3.17;;
63032;SDS011;49121;38.932;-9.018;2022-12-18T05:03:50;6.63;;;2.20;;
63032;SDS011;49121;38.932;-9.018;2022-12-18T05:05:52;4.95;;;2.00;;
63032;SDS011;49121;38.932;-9.018;2022-12-18T05:07:52;4.72;;;2.17;;
63032;SDS011;49121;38.932;-9.018;2022-12-18T05:11:54;4.53;;;2.37;;
63032;SDS011;49121;38.932;-9.018;2022-12-18T05:13:57;6.25;;;2.40;;
63032;SDS011;49121;38.932;-9.018;2022-12-18T05:18:36;5.47;;;2.15;;
63032;SDS011;49121;38.932;-9.018;2022-12-18T05:20:55;9.82;;;3.08;;
63032;SDS011;49121;38.932;-9.018;2022-12-18T05:23:14;6.30;;;2.50;;
63032;SDS011;49121;38.932;-9.018;2022-12-18T05:25:15;5.22;;;2.13;;
63032;SDS011;49121;38.932;-9.018;2022-12-18T05:29:16;4.47;;;1.67;;
63032;SDS011;49121;38.932;-9.018;2022-12-18T05:31:54;4.47;;;1.80;;
63032;SDS011;49121;38.932;-9.018;2022-12-18T05:33:54;7.30;;;2.20;;
63032;SDS011;49121;38.932;-9.018;2022-12-18T05:37:57;9.48;;;2.00;;
63032;SDS011;49121;38.932;-9.018;2022-12-18T05:46:54;15.35;;;2.95;;
63032;SDS011;49121;38.932;-9.018;2022-12-18T05:48:55;8.05;;;2.38;;
63032;SDS011;49121;38.932;-9.018;2022-12-18T05:51:04;6.88;;;2.35;;
63032;SDS011;49121;38.932;-9.018;2022-12-18T05:53:07;7.20;;;2.78;;
63032;SDS011;49121;38.932;-9.018;2022-12-18T05:55:08;5.55;;;2.65;;
63032;SDS011;49121;38.932;-9.018;2022-12-18T05:57:39;8.25;;;3.08;;
63032;SDS011;49121;38.932;-9.018;2022-12-18T05:59:44;9.13;;;2.60;;
63032;SDS011;49121;38.932;-9.018;2022-12-18T06:01:45;7.18;;;2.53;;
63032;SDS011;49121;38.932;-9.018;2022-12-18T06:05:47;8.33;;;3.10;;
63032;SDS011;49121;38.932;-9.018;2022-12-18T06:07:47;13.45;;;2.90;;
63032;SDS011;49121;38.932;-9.018;2022-12-18T06:10:06;12.23;;;3.65;;
63032;SDS011;49121;38.932;-9.018;2022-12-18T06:12:07;6.97;;;2.88;;
63032;SDS011;49121;38.932;-9.018;2022-12-18T06:16:09;13.20;;;3.43;;
63032;SDS011;49121;38.932;-9.018;2022-12-18T06:20:10;16.70;;;3.43;;
63032;SDS011;49121;38.932;-9.018;2022-12-18T06:22:30;9.93;;;3.00;;
63032;SDS011;49121;38.932;-9.018;2022-12-18T06:24:32;6.82;;;2.63;;
63032;SDS011;49121;38.932;-9.018;2022-12-18T06:28:34;6.72;;;2.92;;
63032;SDS011;49121;38.932;-9.018;2022-12-18T06:32:51;8.88;;;3.30;;
63032;SDS011;49121;38.932;-9.018;2022-12-18T06:34:52;7.95;;;3.22;;
63032;SDS011;49121;38.932;-9.018;2022-12-18T06:39:13;10.32;;;3.22;;
63032;SDS011;49121;38.932;-9.018;2022-12-18T06:41:15;11.27;;;3.35;;
63032;SDS011;49121;38.932;-9.018;2022-12-18T06:43:20;12.88;;;3.85;;
63032;SDS011;49121;38.932;-9.018;2022-12-18T06:45:24;6.18;;;3.22;;
63032;SDS011;49121;38.932;-9.018;2022-12-18T06:47:25;9.63;;;3.03;;
63032;SDS011;49121;38.932;-9.018;2022-12-18T06:49:25;11.68;;;4.10;;
63032;SDS011;49121;38.932;-9.018;2022-12-18T06:53:27;8.63;;;3.83;;
63032;SDS011;49121;38.932;-9.018;2022-12-18T06:57:28;14.83;;;3.80;;
63032;SDS011;49121;38.932;-9.018;2022-12-18T06:59:29;9.40;;;4.00;;
63032;SDS011;49121;38.932;-9.018;2022-12-18T07:01:29;11.73;;;4.30;;
63032;SDS011;49121;38.932;-9.018;2022-12-18T07:05:31;18.57;;;5.13;;
63032;SDS011;49121;38.932;-9.018;2022-12-18T07:13:06;11.45;;;3.55;;
63032;SDS011;49121;38.932;-9.018;2022-12-18T07:15:07;15.45;;;4.88;;
63032;SDS011;49121;38.932;-9.018;2022-12-18T07:19:08;14.80;;;5.60;;
63032;SDS011;49121;38.932;-9.018;2022-12-18T07:21:10;18.05;;;6.22;;
63032;SDS011;49121;38.932;-9.018;2022-12-18T07:26:09;18.00;;;5.40;;
63032;SDS011;49121;38.932;-9.018;2022-12-18T07:28:11;20.92;;;6.13;;
63032;SDS011;49121;38.932;-9.018;2022-12-18T07:30:12;23.95;;;6.60;;
63032;SDS011;49121;38.932;-9.018;2022-12-18T07:34:14;16.23;;;6.00;;
63032;SDS011;49121;38.932;-9.018;2022-12-18T07:36:15;18.67;;;7.65;;
63032;SDS011;49121;38.932;-9.018;2022-12-18T07:38:16;23.73;;;7.68;;
63032;SDS011;49121;38.932;-9.018;2022-12-18T07:42:17;19.93;;;7.00;;
63032;SDS011;49121;38.932;-9.018;2022-12-18T07:44:33;21.65;;;6.65;;
63032;SDS011;49121;38.932;-9.018;2022-12-18T07:46:34;17.88;;;6.60;;
63032;SDS011;49121;38.932;-9.018;2022-12-18T07:50:35;20.73;;;7.30;;
63032;SDS011;49121;38.932;-9.018;2022-12-18T07:54:56;16.80;;;6.45;;
63032;SDS011;49121;38.932;-9.018;2022-12-18T07:56:56;24.90;;;6.32;;
63032;SDS011;49121;38.932;-9.018;2022-12-18T07:58:58;26.38;;;6.63;;
63032;SDS011;49121;38.932;-9.018;2022-12-18T08:01:05;15.68;;;5.72;;
63032;SDS011;49121;38.932;-9.018;2022-12-18T08:03:26;16.23;;;4.65;;
63032;SDS011;49121;38.932;-9.018;2022-12-18T08:05:27;19.83;;;6.28;;
63032;SDS011;49121;38.932;-9.018;2022-12-18T08:07:36;19.20;;;5.50;;
63032;SDS011;49121;38.932;-9.018;2022-12-18T08:09:37;16.83;;;5.55;;
63032;SDS011;49121;38.932;-9.018;2022-12-18T08:11:37;13.85;;;4.82;;
63032;SDS011;49121;38.932;-9.018;2022-12-18T08:15:39;20.33;;;5.80;;
63032;SDS011;49121;38.932;-9.018;2022-12-18T08:22:36;15.27;;;5.60;;
63032;SDS011;49121;38.932;-9.018;2022-12-18T08:24:37;11.85;;;5.18;;
63032;SDS011;49121;38.932;-9.018;2022-12-18T08:28:57;23.83;;;5.53;;
63032;SDS011;49121;38.932;-9.018;2022-12-18T08:30:59;14.13;;;4.57;;
63032;SDS011;49121;38.932;-9.018;2022-12-18T08:33:00;14.95;;;4.50;;
63032;SDS011;49121;38.932;-9.018;2022-12-18T08:37:01;18.17;;;5.30;;
63032;SDS011;49121;38.932;-9.018;2022-12-18T08:41:03;14.07;;;4.70;;
63032;SDS011;49121;38.932;-9.018;2022-12-18T08:43:09;11.65;;;4.45;;
63032;SDS011;49121;38.932;-9.018;2022-12-18T08:45:29;14.25;;;5.13;;
63032;SDS011;49121;38.932;-9.018;2022-12-18T08:49:30;13.23;;;4.47;;
63032;SDS011;49121;38.932;-9.018;2022-12-18T08:51:32;13.27;;;5.45;;
63032;SDS011;49121;38.932;-9.018;2022-12-18T08:53:33;16.10;;;4.93;;
63032;SDS011;49121;38.932;-9.018;2022-12-18T09:08:27;19.67;;;5.60;;
63032;SDS011;49121;38.932;-9.018;2022-12-18T09:10:28;13.50;;;4.38;;
63032;SDS011;49121;38.932;-9.018;2022-12-18T09:14:29;15.17;;;3.90;;
63032;SDS011;49121;38.932;-9.018;2022-12-18T09:18:31;13.32;;;5.20;;
63032;SDS011;49121;38.932;-9.018;2022-12-18T09:22:32;11.53;;;4.37;;
63032;SDS011;49121;38.932;-9.018;2022-12-18T09:26:33;8.30;;;3.47;;
63032;SDS011;49121;38.932;-9.018;2022-12-18T09:28:52;13.02;;;3.40;;
63032;SDS011;49121;38.932;-9.018;2022-12-18T09:30:54;10.75;;;3.78;;
63032;SDS011;49121;38.932;-9.018;2022-12-18T09:34:55;7.53;;;2.50;;
63032;SDS011;49121;38.932;-9.018;2022-12-18T09:43:49;12.43;;;2.92;;
63032;SDS011;49121;38.932;-9.018;2022-12-18T09:46:10;11.57;;;3.17;;
63032;SDS011;49121;38.932;-9.018;2022-12-18T09:48:49;8.02;;;3.05;;
63032;SDS011;49121;38.932;-9.018;2022-12-18T09:50:55;6.90;;;2.72;;
63032;SDS011;49121;38.932;-9.018;2022-12-18T09:53:09;10.98;;;2.90;;
63032;SDS011;49121;38.932;-9.018;2022-12-18T09:55:35;7.78;;;2.55;;
63032;SDS011;49121;38.932;-9.018;2022-12-18T09:57:41;8.52;;;2.70;;
63032;SDS011;49121;38.932;-9.018;2022-12-18T09:59:50;12.88;;;2.63;;
63032;SDS011;49121;38.932;-9.018;2022-12-18T10:02:16;4.68;;;1.90;;
63032;SDS011;49121;38.932;-9.018;2022-12-18T10:04:21;4.88;;;2.13;;
63032;SDS011;49121;38.932;-9.018;2022-12-18T10:10:53;9.57;;;2.50;;
63032;SDS011;49121;38.932;-9.018;2022-12-18T10:17:46;5.18;;;2.17;;
63032;SDS011;49121;38.932;-9.018;2022-12-18T10:27:57;8.43;;;2.40;;
63032;SDS011;49121;38.932;-9.018;2022-12-18T10:30:12;10.73;;;2.53;;
63032;SDS011;49121;38.932;-9.018;2022-12-18T10:32:22;11.90;;;2.38;;
63032;SDS011;49121;38.932;-9.018;2022-12-18T10:34:25;7.55;;;1.92;;
63032;SDS011;49121;38.932;-9.018;2022-12-18T10:38:31;8.77;;;2.40;;
63032;SDS011;49121;38.932;-9.018;2022-12-18T10:40:34;7.22;;;2.70;;
63032;SDS011;49121;38.932;-9.018;2022-12-18T10:43:05;5.28;;;2.08;;
63032;SDS011;49121;38.932;-9.018;2022-12-18T10:45:14;5.82;;;1.88;;
63032;SDS011;49121;38.932;-9.018;2022-12-18T10:50:00;6.78;;;2.13;;
63032;SDS011;49121;38.932;-9.018;2022-12-18T10:54:24;6.22;;;1.83;;
63032;SDS011;49121;38.932;-9.018;2022-12-18T10:58:29;10.68;;;2.83;;
63032;SDS011;49121;38.932;-9.018;2022-12-18T11:00:31;7.35;;;1.77;;
63032;SDS011;49121;38.932;-9.018;2022-12-18T11:04:55;6.13;;;2.00;;
63032;SDS011;49121;38.932;-9.018;2022-12-18T11:09:19;10.10;;;2.15;;
63032;SDS011;49121;38.932;-9.018;2022-12-18T11:11:21;3.97;;;1.80;;
63032;SDS011;49121;38.932;-9.018;2022-12-18T11:13:28;6.63;;;2.92;;
63032;SDS011;49121;38.932;-9.018;2022-12-18T11:15:30;4.95;;;1.77;;
63032;SDS011;49121;38.932;-9.018;2022-12-18T11:19:37;7.38;;;1.50;;
63032;SDS011;49121;38.932;-9.018;2022-12-18T11:21:40;7.45;;;2.03;;
63032;SDS011;49121;38.932;-9.018;2022-12-18T11:26:19;6.10;;;1.88;;
63032;SDS011;49121;38.932;-9.018;2022-12-18T11:30:48;9.23;;;1.50;;
63032;SDS011;49121;38.932;-9.018;2022-12-18T11:35:03;3.47;;;1.38;;
63032;SDS011;49121;38.932;-9.018;2022-12-18T11:37:12;9.73;;;1.42;;
63032;SDS011;49121;38.932;-9.018;2022-12-18T11:43:54;4.80;;;1.55;;
63032;SDS011;49121;38.932;-9.018;2022-12-18T11:49:33;6.95;;;1.90;;
63032;SDS011;49121;38.932;-9.018;2022-12-18T11:51:38;4.68;;;1.55;;
63032;SDS011;49121;38.932;-9.018;2022-12-18T11:53:47;7.28;;;1.70;;
63032;SDS011;49121;38.932;-9.018;2022-12-18T12:01:31;5.75;;;1.50;;
63032;SDS011;49121;38.932;-9.018;2022-12-18T12:07:31;7.15;;;1.92;;
63032;SDS011;49121;38.932;-9.018;2022-12-18T12:17:04;6.78;;;2.13;;
63032;SDS011;49121;38.932;-9.018;2022-12-18T12:26:45;10.45;;;2.50;;
63032;SDS011;49121;38.932;-9.018;2022-12-18T12:40:40;8.00;;;2.75;;
63032;SDS011;49121;38.932;-9.018;2022-12-18T12:48:05;8.07;;;2.60;;
63032;SDS011;49121;38.932;-9.018;2022-12-18T12:50:14;4.75;;;2.13;;
63032;SDS011;49121;38.932;-9.018;2022-12-18T12:52:20;5.47;;;2.40;;
63032;SDS011;49121;38.932;-9.018;2022-12-18T12:54:29;8.80;;;2.53;;
63032;SDS011;49121;38.932;-9.018;2022-12-18T12:59:22;10.15;;;2.58;;
63032;SDS011;49121;38.932;-9.018;2022-12-18T13:01:53;8.43;;;2.38;;
63032;SDS011;49121;38.932;-9.018;2022-12-18T13:09:11;11.77;;;2.38;;
63032;SDS011;49121;38.932;-9.018;2022-12-18T13:13:56;5.00;;;2.33;;
63032;SDS011;49121;38.932;-9.018;2022-12-18T13:16:05;7.95;;;3.42;;
63032;SDS011;49121;38.932;-9.018;2022-12-18T13:18:25;6.68;;;2.38;;
63032;SDS011;49121;38.932;-9.018;2022-12-18T13:20:32;8.25;;;3.17;;
63032;SDS011;49121;38.932;-9.018;2022-12-18T13:22:54;6.93;;;2.95;;
63032;SDS011;49121;38.932;-9.018;2022-12-18T13:24:55;4.90;;;2.85;;
63032;SDS011;49121;38.932;-9.018;2022-12-18T13:28:57;8.00;;;3.60;;
63032;SDS011;49121;38.932;-9.018;2022-12-18T13:30:59;5.00;;;2.42;;
63032;SDS011;49121;38.932;-9.018;2022-12-18T13:44:59;5.88;;;2.90;;
63032;SDS011;49121;38.932;-9.018;2022-12-18T13:47:01;7.38;;;3.63;;
63032;SDS011;49121;38.932;-9.018;2022-12-18T13:49:06;10.68;;;3.10;;
63032;SDS011;49121;38.932;-9.018;2022-12-18T13:51:16;8.52;;;3.85;;
63032;SDS011;49121;38.932;-9.018;2022-12-18T13:53:20;6.63;;;3.17;;
63032;SDS011;49121;38.932;-9.018;2022-12-18T13:55:25;14.50;;;5.45;;
63032;SDS011;49121;38.932;-9.018;2022-12-18T13:59:33;7.75;;;3.35;;
63032;SDS011;49121;38.932;-9.018;2022-12-18T14:01:36;7.53;;;3.60;;
63032;SDS011;49121;38.932;-9.018;2022-12-18T14:05:46;6.05;;;3.25;;
63032;SDS011;49121;38.932;-9.018;2022-12-18T14:07:54;10.18;;;4.88;;
63032;SDS011;49121;38.932;-9.018;2022-12-18T14:09:55;13.32;;;4.28;;
63032;SDS011;49121;38.932;-9.018;2022-12-18T14:11:58;11.98;;;4.15;;
63032;SDS011;49121;38.932;-9.018;2022-12-18T14:16:19;11.38;;;3.83;;
63032;SDS011;49121;38.932;-9.018;2022-12-18T14:18:24;9.70;;;4.03;;
63032;SDS011;49121;38.932;-9.018;2022-12-18T14:23:04;10.00;;;3.78;;
63032;SDS011;49121;38.932;-9.018;2022-12-18T14:25:27;9.80;;;4.13;;
63032;SDS011;49121;38.932;-9.018;2022-12-18T14:27:36;9.18;;;3.75;;
63032;SDS011;49121;38.932;-9.018;2022-12-18T14:39:57;13.82;;;3.30;;
63032;SDS011;49121;38.932;-9.018;2022-12-18T14:42:00;14.63;;;5.22;;
63032;SDS011;49121;38.932;-9.018;2022-12-18T14:44:05;7.78;;;3.95;;
63032;SDS011;49121;38.932;-9.018;2022-12-18T14:46:27;8.63;;;3.70;;
63032;SDS011;49121;38.932;-9.018;2022-12-18T14:50:54;7.70;;;3.13;;
63032;SDS011;49121;38.932;-9.018;2022-12-18T14:52:57;8.52;;;3.40;;
63032;SDS011;49121;38.932;-9.018;2022-12-18T14:54:57;8.98;;;4.35;;
63032;SDS011;49121;38.932;-9.018;2022-12-18T14:57:02;7.45;;;3.50;;
63032;SDS011;49121;38.932;-9.018;2022-12-18T14:59:04;8.38;;;3.80;;
63032;SDS011;49121;38.932;-9.018;2022-12-18T15:01:23;7.25;;;2.85;;
63032;SDS011;49121;38.932;-9.018;2022-12-18T15:03:29;19.55;;;3.38;;
63032;SDS011;49121;38.932;-9.018;2022-12-18T15:05:48;5.38;;;2.80;;
63032;SDS011;49121;38.932;-9.018;2022-12-18T15:07:50;8.15;;;3.30;;
63032;SDS011;49121;38.932;-9.018;2022-12-18T15:14:40;6.65;;;2.72;;
63032;SDS011;49121;38.932;-9.018;2022-12-18T15:19:22;6.15;;;3.33;;
63032;SDS011;49121;38.932;-9.018;2022-12-18T15:21:32;6.05;;;2.42;;
63032;SDS011;49121;38.932;-9.018;2022-12-18T15:23:54;11.45;;;3.15;;
63032;SDS011;49121;38.932;-9.018;2022-12-18T15:28:00;4.72;;;2.55;;
63032;SDS011;49121;38.932;-9.018;2022-12-18T15:32:20;5.50;;;3.13;;
63032;SDS011;49121;38.932;-9.018;2022-12-18T15:37:19;6.00;;;2.95;;
63032;SDS011;49121;38.932;-9.018;2022-12-18T15:39:20;10.98;;;3.13;;
63032;SDS011;49121;38.932;-9.018;2022-12-18T15:44:21;6.03;;;3.03;;
63032;SDS011;49121;38.932;-9.018;2022-12-18T15:46:24;6.85;;;2.28;;
63032;SDS011;49121;38.932;-9.018;2022-12-18T15:48:25;10.30;;;2.67;;
63032;SDS011;49121;38.932;-9.018;2022-12-18T15:50:26;9.30;;;2.25;;
63032;SDS011;49121;38.932;-9.018;2022-12-18T15:52:26;6.30;;;2.47;;
63032;SDS011;49121;38.932;-9.018;2022-12-18T15:57:56;6.22;;;2.85;;
63032;SDS011;49121;38.932;-9.018;2022-12-18T15:59:57;10.32;;;3.95;;
63032;SDS011;49121;38.932;-9.018;2022-12-18T16:01:58;6.35;;;2.30;;
63032;SDS011;49121;38.932;-9.018;2022-12-18T16:03:58;5.32;;;2.47;;
63032;SDS011;49121;38.932;-9.018;2022-12-18T16:05:59;8.98;;;3.33;;
63032;SDS011;49121;38.932;-9.018;2022-12-18T16:08:02;6.20;;;2.95;;
63032;SDS011;49121;38.932;-9.018;2022-12-18T16:10:02;8.60;;;2.67;;
63032;SDS011;49121;38.932;-9.018;2022-12-18T16:12:04;14.55;;;2.58;;
63032;SDS011;49121;38.932;-9.018;2022-12-18T16:16:16;5.40;;;2.55;;
63032;SDS011;49121;38.932;-9.018;2022-12-18T16:18:16;9.50;;;2.95;;
63032;SDS011;49121;38.932;-9.018;2022-12-18T16:20:19;7.47;;;2.92;;
63032;SDS011;49121;38.932;-9.018;2022-12-18T16:22:25;8.52;;;2.90;;
63032;SDS011;49121;38.932;-9.018;2022-12-18T16:26:47;11.40;;;3.25;;
63032;SDS011;49121;38.932;-9.018;2022-12-18T16:28:48;8.23;;;2.58;;
63032;SDS011;49121;38.932;-9.018;2022-12-18T16:30:51;6.35;;;2.30;;
63032;SDS011;49121;38.932;-9.018;2022-12-18T16:32:55;7.03;;;2.70;;
63032;SDS011;49121;38.932;-9.018;2022-12-18T16:34:59;7.03;;;3.00;;
63032;SDS011;49121;38.932;-9.018;2022-12-18T16:37:01;8.15;;;2.38;;
63032;SDS011;49121;38.932;-9.018;2022-12-18T16:39:06;9.00;;;2.58;;
63032;SDS011;49121;38.932;-9.018;2022-12-18T16:41:18;6.20;;;2.30;;
63032;SDS011;49121;38.932;-9.018;2022-12-18T16:48:18;5.70;;;2.50;;
63032;SDS011;49121;38.932;-9.018;2022-12-18T16:50:18;4.85;;;2.05;;
63032;SDS011;49121;38.932;-9.018;2022-12-18T16:54:38;6.07;;;2.55;;
63032;SDS011;49121;38.932;-9.018;2022-12-18T16:56:57;7.85;;;2.70;;
63032;SDS011;49121;38.932;-9.018;2022-12-18T16:58:59;9.65;;;3.45;;
63032;SDS011;49121;38.932;-9.018;2022-12-18T17:01:06;7.03;;;2.22;;
63032;SDS011;49121;38.932;-9.018;2022-12-18T17:03:07;7.35;;;2.63;;
63032;SDS011;49121;38.932;-9.018;2022-12-18T17:05:08;7.03;;;1.98;;
63032;SDS011;49121;38.932;-9.018;2022-12-18T17:12:09;7.88;;;2.72;;
63032;SDS011;49121;38.932;-9.018;2022-12-18T17:14:13;8.75;;;2.40;;
63032;SDS011;49121;38.932;-9.018;2022-12-18T17:16:16;8.10;;;3.17;;
63032;SDS011;49121;38.932;-9.018;2022-12-18T17:21:01;5.65;;;2.60;;
63032;SDS011;49121;38.932;-9.018;2022-12-18T17:23:03;6.50;;;2.88;;
63032;SDS011;49121;38.932;-9.018;2022-12-18T17:25:04;7.72;;;2.58;;
63032;SDS011;49121;38.932;-9.018;2022-12-18T17:27:05;9.93;;;3.00;;
63032;SDS011;49121;38.932;-9.018;2022-12-18T17:29:06;8.35;;;2.50;;
63032;SDS011;49121;38.932;-9.018;2022-12-18T17:31:16;7.53;;;2.63;;
63032;SDS011;49121;38.932;-9.018;2022-12-18T17:33:20;4.78;;;2.00;;
63032;SDS011;49121;38.932;-9.018;2022-12-18T17:35:22;10.02;;;2.40;;
63032;SDS011;49121;38.932;-9.018;2022-12-18T17:37:22;9.18;;;2.42;;
63032;SDS011;49121;38.932;-9.018;2022-12-18T17:39:24;4.38;;;2.33;;
63032;SDS011;49121;38.932;-9.018;2022-12-18T17:41:25;4.55;;;2.40;;
63032;SDS011;49121;38.932;-9.018;2022-12-18T17:43:28;8.82;;;2.00;;
63032;SDS011;49121;38.932;-9.018;2022-12-18T17:45:38;4.85;;;2.88;;
63032;SDS011;49121;38.932;-9.018;2022-12-18T17:47:42;5.88;;;2.70;;
63032;SDS011;49121;38.932;-9.018;2022-12-18T17:49:43;6.25;;;2.53;;
63032;SDS011;49121;38.932;-9.018;2022-12-18T17:51:44;8.55;;;3.17;;
63032;SDS011;49121;38.932;-9.018;2022-12-18T17:53:46;9.82;;;2.90;;
63032;SDS011;49121;38.932;-9.018;2022-12-18T17:56:05;9.20;;;3.03;;
63032;SDS011;49121;38.932;-9.018;2022-12-18T17:58:06;10.80;;;2.83;;
63032;SDS011;49121;38.932;-9.018;2022-12-18T18:00:07;8.27;;;2.38;;
63032;SDS011;49121;38.932;-9.018;2022-12-18T18:02:26;6.28;;;2.22;;
63032;SDS011;49121;38.932;-9.018;2022-12-18T18:04:27;9.52;;;3.83;;
63032;SDS011;49121;38.932;-9.018;2022-12-18T18:06:28;5.95;;;2.72;;
63032;SDS011;49121;38.932;-9.018;2022-12-18T18:08:29;8.07;;;2.97;;
63032;SDS011;49121;38.932;-9.018;2022-12-18T18:10:31;8.35;;;3.13;;
63032;SDS011;49121;38.932;-9.018;2022-12-18T18:12:32;8.68;;;3.15;;
63032;SDS011;49121;38.932;-9.018;2022-12-18T18:14:52;7.05;;;2.60;;
63032;SDS011;49121;38.932;-9.018;2022-12-18T18:16:53;9.50;;;3.00;;
63032;SDS011;49121;38.932;-9.018;2022-12-18T18:18:55;10.63;;;2.55;;
63032;SDS011;49121;38.932;-9.018;2022-12-18T18:20:57;8.70;;;3.08;;
63032;SDS011;49121;38.932;-9.018;2022-12-18T18:26:05;9.05;;;3.17;;
63032;SDS011;49121;38.932;-9.018;2022-12-18T18:31:05;8.98;;;3.05;;
63032;SDS011;49121;38.932;-9.018;2022-12-18T18:33:07;10.15;;;2.65;;
63032;SDS011;49121;38.932;-9.018;2022-12-18T18:37:08;9.23;;;2.60;;